Port Charlotte, Florida
Current Conditions -  °F | °C
As of 10:53 AM on Friday 31 Oct 2014 (Local Time) from KPGD Reporting Station
Scattered Clouds Scattered Clouds  
Wind Chill: 77°   Ceiling: Unl
Heat Index: 79°   Visibility: 10mi
Dew Point: 66°   Wind: 8mph
Humidity: 69%   Direction: 360°N
Pressure: 29.92"   Gusts: NA
Location:  26.98°N, 82.1°W
Report Text: KPGD 311453Z 36007KT 10SM FEW036 SCT080 25/19 A2992 RMK AO2 SLP131 T02500189 51013
Loading
Personal Weather Stations






























Interactive Weather Map
Tropical Storm Tracking
New forecast layout! Learn more

10-Day Weather Forecast

Advertisements
Track Severe Weather on mobile